sensor_id;sensor_type;location;lat;lon;timestamp;P1;durP1;ratioP1;P2;durP2;ratioP2
10365;SDS011;5229;41.820;23.490;2023-04-24T00:00:18;3.77;;;3.10;;
10365;SDS011;5229;41.820;23.490;2023-04-24T00:02:45;3.80;;;3.50;;
10365;SDS011;5229;41.820;23.490;2023-04-24T00:05:15;3.27;;;2.97;;
10365;SDS011;5229;41.820;23.490;2023-04-24T00:07:42;4.03;;;3.43;;
10365;SDS011;5229;41.820;23.490;2023-04-24T00:10:10;4.00;;;3.13;;
10365;SDS011;5229;41.820;23.490;2023-04-24T00:12:38;4.40;;;3.40;;
10365;SDS011;5229;41.820;23.490;2023-04-24T00:15:05;3.70;;;3.40;;
10365;SDS011;5229;41.820;23.490;2023-04-24T00:17:32;3.40;;;3.10;;
10365;SDS011;5229;41.820;23.490;2023-04-24T00:19:59;5.37;;;3.43;;
10365;SDS011;5229;41.820;23.490;2023-04-24T00:22:31;3.73;;;3.20;;
10365;SDS011;5229;41.820;23.490;2023-04-24T00:24:57;7.10;;;3.27;;
10365;SDS011;5229;41.820;23.490;2023-04-24T00:27:24;3.70;;;3.40;;
10365;SDS011;5229;41.820;23.490;2023-04-24T00:29:51;4.10;;;3.70;;
10365;SDS011;5229;41.820;23.490;2023-04-24T00:32:18;3.50;;;3.13;;
10365;SDS011;5229;41.820;23.490;2023-04-24T00:34:45;4.20;;;3.80;;
10365;SDS011;5229;41.820;23.490;2023-04-24T00:37:12;5.70;;;3.63;;
10365;SDS011;5229;41.820;23.490;2023-04-24T00:39:40;3.63;;;3.33;;
10365;SDS011;5229;41.820;23.490;2023-04-24T00:42:06;4.10;;;3.70;;
10365;SDS011;5229;41.820;23.490;2023-04-24T00:44:33;3.90;;;3.50;;
10365;SDS011;5229;41.820;23.490;2023-04-24T00:47:00;6.63;;;3.63;;
10365;SDS011;5229;41.820;23.490;2023-04-24T00:49:27;3.67;;;3.33;;
10365;SDS011;5229;41.820;23.490;2023-04-24T00:51:54;4.33;;;3.70;;
10365;SDS011;5229;41.820;23.490;2023-04-24T00:54:22;4.13;;;3.50;;
10365;SDS011;5229;41.820;23.490;2023-04-24T00:56:50;4.50;;;3.00;;
10365;SDS011;5229;41.820;23.490;2023-04-24T00:59:17;3.63;;;3.33;;
10365;SDS011;5229;41.820;23.490;2023-04-24T01:01:44;3.57;;;3.27;;
10365;SDS011;5229;41.820;23.490;2023-04-24T01:04:11;3.97;;;3.47;;
10365;SDS011;5229;41.820;23.490;2023-04-24T01:06:39;5.23;;;3.20;;
10365;SDS011;5229;41.820;23.490;2023-04-24T01:09:07;4.37;;;3.83;;
10365;SDS011;5229;41.820;23.490;2023-04-24T01:11:35;3.93;;;3.23;;
10365;SDS011;5229;41.820;23.490;2023-04-24T01:14:04;3.97;;;3.57;;
10365;SDS011;5229;41.820;23.490;2023-04-24T01:16:31;3.37;;;3.07;;
10365;SDS011;5229;41.820;23.490;2023-04-24T01:18:57;3.17;;;2.87;;
10365;SDS011;5229;41.820;23.490;2023-04-24T01:21:25;3.63;;;3.33;;
10365;SDS011;5229;41.820;23.490;2023-04-24T01:23:55;3.07;;;2.83;;
10365;SDS011;5229;41.820;23.490;2023-04-24T01:26:22;3.33;;;3.03;;
10365;SDS011;5229;41.820;23.490;2023-04-24T01:28:50;3.73;;;3.40;;
10365;SDS011;5229;41.820;23.490;2023-04-24T01:31:17;3.93;;;3.50;;
10365;SDS011;5229;41.820;23.490;2023-04-24T01:33:44;3.70;;;3.40;;
10365;SDS011;5229;41.820;23.490;2023-04-24T01:36:12;3.73;;;3.43;;
10365;SDS011;5229;41.820;23.490;2023-04-24T01:38:40;3.50;;;3.20;;
10365;SDS011;5229;41.820;23.490;2023-04-24T01:41:08;4.10;;;3.57;;
10365;SDS011;5229;41.820;23.490;2023-04-24T01:43:35;3.80;;;3.40;;
10365;SDS011;5229;41.820;23.490;2023-04-24T01:46:02;4.00;;;3.60;;
10365;SDS011;5229;41.820;23.490;2023-04-24T01:48:29;5.20;;;3.40;;
10365;SDS011;5229;41.820;23.490;2023-04-24T01:50:57;3.50;;;3.20;;
10365;SDS011;5229;41.820;23.490;2023-04-24T01:53:25;4.63;;;4.23;;
10365;SDS011;5229;41.820;23.490;2023-04-24T01:55:52;4.00;;;3.60;;
10365;SDS011;5229;41.820;23.490;2023-04-24T01:58:20;4.10;;;3.70;;
10365;SDS011;5229;41.820;23.490;2023-04-24T02:00:47;4.37;;;3.97;;
10365;SDS011;5229;41.820;23.490;2023-04-24T02:03:14;4.27;;;3.87;;
10365;SDS011;5229;41.820;23.490;2023-04-24T02:05:43;6.83;;;4.03;;
10365;SDS011;5229;41.820;23.490;2023-04-24T02:08:10;4.50;;;3.67;;
10365;SDS011;5229;41.820;23.490;2023-04-24T02:10:36;4.17;;;3.63;;
10365;SDS011;5229;41.820;23.490;2023-04-24T02:13:03;4.13;;;3.73;;
10365;SDS011;5229;41.820;23.490;2023-04-24T02:15:32;4.77;;;3.80;;
10365;SDS011;5229;41.820;23.490;2023-04-24T02:17:58;3.43;;;3.13;;
10365;SDS011;5229;41.820;23.490;2023-04-24T02:20:25;4.40;;;3.27;;
10365;SDS011;5229;41.820;23.490;2023-04-24T02:22:52;4.13;;;3.70;;
10365;SDS011;5229;41.820;23.490;2023-04-24T02:25:19;4.23;;;3.27;;
10365;SDS011;5229;41.820;23.490;2023-04-24T02:27:46;4.13;;;3.73;;
10365;SDS011;5229;41.820;23.490;2023-04-24T02:30:13;3.97;;;3.27;;
10365;SDS011;5229;41.820;23.490;2023-04-24T02:32:41;3.57;;;3.20;;
10365;SDS011;5229;41.820;23.490;2023-04-24T02:35:08;4.50;;;3.80;;
10365;SDS011;5229;41.820;23.490;2023-04-24T02:37:35;4.93;;;3.53;;
10365;SDS011;5229;41.820;23.490;2023-04-24T02:40:02;3.77;;;3.47;;
10365;SDS011;5229;41.820;23.490;2023-04-24T02:42:30;4.53;;;4.13;;
10365;SDS011;5229;41.820;23.490;2023-04-24T02:44:57;4.93;;;3.93;;
10365;SDS011;5229;41.820;23.490;2023-04-24T02:47:24;4.10;;;3.60;;
10365;SDS011;5229;41.820;23.490;2023-04-24T02:49:52;3.40;;;3.10;;
10365;SDS011;5229;41.820;23.490;2023-04-24T02:52:19;3.70;;;3.40;;
10365;SDS011;5229;41.820;23.490;2023-04-24T02:54:46;4.13;;;3.67;;
10365;SDS011;5229;41.820;23.490;2023-04-24T02:57:12;5.27;;;4.00;;
10365;SDS011;5229;41.820;23.490;2023-04-24T02:59:40;4.97;;;4.10;;
10365;SDS011;5229;41.820;23.490;2023-04-24T03:02:06;4.10;;;3.70;;
10365;SDS011;5229;41.820;23.490;2023-04-24T03:04:33;4.00;;;3.60;;
10365;SDS011;5229;41.820;23.490;2023-04-24T03:07:01;4.03;;;3.63;;
10365;SDS011;5229;41.820;23.490;2023-04-24T03:09:29;4.20;;;3.80;;
10365;SDS011;5229;41.820;23.490;2023-04-24T03:11:56;4.10;;;3.70;;
10365;SDS011;5229;41.820;23.490;2023-04-24T03:14:23;5.07;;;4.13;;
10365;SDS011;5229;41.820;23.490;2023-04-24T03:16:50;4.83;;;4.33;;
10365;SDS011;5229;41.820;23.490;2023-04-24T03:19:17;5.37;;;4.23;;
10365;SDS011;5229;41.820;23.490;2023-04-24T03:21:43;3.90;;;3.50;;
10365;SDS011;5229;41.820;23.490;2023-04-24T03:24:11;4.87;;;3.80;;
10365;SDS011;5229;41.820;23.490;2023-04-24T03:26:38;4.40;;;4.00;;
10365;SDS011;5229;41.820;23.490;2023-04-24T03:29:05;3.97;;;3.53;;
10365;SDS011;5229;41.820;23.490;2023-04-24T03:31:32;5.03;;;4.10;;
10365;SDS011;5229;41.820;23.490;2023-04-24T03:33:58;4.27;;;3.87;;
10365;SDS011;5229;41.820;23.490;2023-04-24T03:36:25;5.33;;;3.77;;
10365;SDS011;5229;41.820;23.490;2023-04-24T03:38:52;4.53;;;4.13;;
10365;SDS011;5229;41.820;23.490;2023-04-24T03:41:21;4.57;;;3.97;;
10365;SDS011;5229;41.820;23.490;2023-04-24T03:43:48;4.33;;;3.93;;
10365;SDS011;5229;41.820;23.490;2023-04-24T03:46:14;4.93;;;4.00;;
10365;SDS011;5229;41.820;23.490;2023-04-24T03:48:41;4.53;;;3.97;;
10365;SDS011;5229;41.820;23.490;2023-04-24T03:51:08;3.90;;;3.53;;
10365;SDS011;5229;41.820;23.490;2023-04-24T03:53:35;4.93;;;3.80;;
10365;SDS011;5229;41.820;23.490;2023-04-24T03:56:02;4.10;;;3.70;;
10365;SDS011;5229;41.820;23.490;2023-04-24T03:58:30;3.87;;;3.50;;
10365;SDS011;5229;41.820;23.490;2023-04-24T04:00:57;4.03;;;3.63;;
10365;SDS011;5229;41.820;23.490;2023-04-24T04:03:24;4.50;;;4.03;;
10365;SDS011;5229;41.820;23.490;2023-04-24T04:05:51;4.80;;;4.00;;
10365;SDS011;5229;41.820;23.490;2023-04-24T04:08:18;4.50;;;4.00;;
10365;SDS011;5229;41.820;23.490;2023-04-24T04:10:45;5.03;;;4.40;;
10365;SDS011;5229;41.820;23.490;2023-04-24T04:13:11;4.67;;;4.17;;
10365;SDS011;5229;41.820;23.490;2023-04-24T04:15:39;4.53;;;4.13;;
10365;SDS011;5229;41.820;23.490;2023-04-24T04:18:06;4.33;;;3.90;;
10365;SDS011;5229;41.820;23.490;2023-04-24T04:20:33;4.43;;;3.83;;
10365;SDS011;5229;41.820;23.490;2023-04-24T04:23:00;4.70;;;4.00;;
10365;SDS011;5229;41.820;23.490;2023-04-24T04:25:27;5.17;;;4.27;;
10365;SDS011;5229;41.820;23.490;2023-04-24T04:27:54;4.23;;;3.83;;
10365;SDS011;5229;41.820;23.490;2023-04-24T04:30:20;4.37;;;3.97;;
10365;SDS011;5229;41.820;23.490;2023-04-24T04:32:49;4.40;;;3.93;;
10365;SDS011;5229;41.820;23.490;2023-04-24T04:35:16;4.17;;;3.77;;
10365;SDS011;5229;41.820;23.490;2023-04-24T04:37:43;5.70;;;4.57;;
10365;SDS011;5229;41.820;23.490;2023-04-24T04:40:10;5.23;;;4.17;;
10365;SDS011;5229;41.820;23.490;2023-04-24T04:42:37;4.70;;;4.30;;
10365;SDS011;5229;41.820;23.490;2023-04-24T04:45:05;5.27;;;3.70;;
10365;SDS011;5229;41.820;23.490;2023-04-24T04:47:34;4.20;;;3.80;;
10365;SDS011;5229;41.820;23.490;2023-04-24T04:50:03;4.20;;;3.80;;
10365;SDS011;5229;41.820;23.490;2023-04-24T04:52:30;4.93;;;4.43;;
10365;SDS011;5229;41.820;23.490;2023-04-24T04:54:57;5.33;;;4.23;;
10365;SDS011;5229;41.820;23.490;2023-04-24T04:57:24;3.70;;;3.37;;
10365;SDS011;5229;41.820;23.490;2023-04-24T04:59:51;4.83;;;4.43;;
10365;SDS011;5229;41.820;23.490;2023-04-24T05:02:17;4.17;;;3.80;;
10365;SDS011;5229;41.820;23.490;2023-04-24T05:04:44;4.77;;;4.37;;
10365;SDS011;5229;41.820;23.490;2023-04-24T05:07:12;5.40;;;4.63;;
10365;SDS011;5229;41.820;23.490;2023-04-24T05:09:39;4.17;;;3.77;;
10365;SDS011;5229;41.820;23.490;2023-04-24T05:12:06;5.00;;;3.93;;
10365;SDS011;5229;41.820;23.490;2023-04-24T05:14:33;4.47;;;4.03;;
10365;SDS011;5229;41.820;23.490;2023-04-24T05:17:00;4.30;;;3.90;;
10365;SDS011;5229;41.820;23.490;2023-04-24T05:19:27;20.37;;;14.97;;
10365;SDS011;5229;41.820;23.490;2023-04-24T05:21:54;8.80;;;7.13;;
10365;SDS011;5229;41.820;23.490;2023-04-24T05:24:22;4.70;;;4.20;;
10365;SDS011;5229;41.820;23.490;2023-04-24T05:26:49;5.47;;;4.30;;
10365;SDS011;5229;41.820;23.490;2023-04-24T05:29:16;4.47;;;4.00;;
10365;SDS011;5229;41.820;23.490;2023-04-24T05:31:44;5.37;;;4.20;;
10365;SDS011;5229;41.820;23.490;2023-04-24T05:34:10;3.97;;;3.67;;
10365;SDS011;5229;41.820;23.490;2023-04-24T05:36:37;7.53;;;6.43;;
10365;SDS011;5229;41.820;23.490;2023-04-24T05:39:04;13.80;;;9.60;;
10365;SDS011;5229;41.820;23.490;2023-04-24T05:41:32;11.13;;;8.57;;
10365;SDS011;5229;41.820;23.490;2023-04-24T05:43:59;9.80;;;7.67;;
10365;SDS011;5229;41.820;23.490;2023-04-24T05:46:26;11.43;;;8.97;;
10365;SDS011;5229;41.820;23.490;2023-04-24T05:48:53;8.83;;;7.10;;
10365;SDS011;5229;41.820;23.490;2023-04-24T05:51:19;7.73;;;6.83;;
10365;SDS011;5229;41.820;23.490;2023-04-24T05:53:46;9.13;;;6.87;;
10365;SDS011;5229;41.820;23.490;2023-04-24T05:56:13;10.63;;;6.40;;
10365;SDS011;5229;41.820;23.490;2023-04-24T05:58:42;6.80;;;5.67;;
10365;SDS011;5229;41.820;23.490;2023-04-24T06:01:08;6.97;;;5.63;;
10365;SDS011;5229;41.820;23.490;2023-04-24T06:03:35;5.50;;;4.70;;
10365;SDS011;5229;41.820;23.490;2023-04-24T06:06:03;6.50;;;4.70;;
10365;SDS011;5229;41.820;23.490;2023-04-24T06:08:30;4.97;;;4.47;;
10365;SDS011;5229;41.820;23.490;2023-04-24T06:10:56;5.47;;;4.37;;
10365;SDS011;5229;41.820;23.490;2023-04-24T06:13:23;5.47;;;4.63;;
10365;SDS011;5229;41.820;23.490;2023-04-24T06:15:51;6.57;;;5.30;;
10365;SDS011;5229;41.820;23.490;2023-04-24T06:18:19;6.33;;;4.97;;
10365;SDS011;5229;41.820;23.490;2023-04-24T06:20:46;5.13;;;4.63;;
10365;SDS011;5229;41.820;23.490;2023-04-24T06:23:13;4.77;;;4.37;;
10365;SDS011;5229;41.820;23.490;2023-04-24T06:25:39;4.83;;;4.43;;
10365;SDS011;5229;41.820;23.490;2023-04-24T06:28:06;5.23;;;4.57;;
10365;SDS011;5229;41.820;23.490;2023-04-24T06:30:33;5.20;;;4.70;;
10365;SDS011;5229;41.820;23.490;2023-04-24T06:33:01;4.87;;;4.37;;
10365;SDS011;5229;41.820;23.490;2023-04-24T06:35:28;10.00;;;4.67;;
10365;SDS011;5229;41.820;23.490;2023-04-24T06:37:54;5.77;;;5.20;;
10365;SDS011;5229;41.820;23.490;2023-04-24T06:40:21;5.67;;;4.83;;
10365;SDS011;5229;41.820;23.490;2023-04-24T06:42:48;4.80;;;4.37;;
10365;SDS011;5229;41.820;23.490;2023-04-24T06:45:15;5.47;;;4.60;;
10365;SDS011;5229;41.820;23.490;2023-04-24T06:47:42;5.23;;;4.73;;
10365;SDS011;5229;41.820;23.490;2023-04-24T06:50:10;5.50;;;4.53;;
10365;SDS011;5229;41.820;23.490;2023-04-24T06:52:37;5.37;;;4.43;;
10365;SDS011;5229;41.820;23.490;2023-04-24T06:55:04;5.43;;;4.80;;
10365;SDS011;5229;41.820;23.490;2023-04-24T06:57:32;5.63;;;5.10;;
10365;SDS011;5229;41.820;23.490;2023-04-24T06:59:59;6.47;;;5.00;;
10365;SDS011;5229;41.820;23.490;2023-04-24T07:02:26;4.40;;;4.00;;
10365;SDS011;5229;41.820;23.490;2023-04-24T07:04:52;5.60;;;5.10;;
10365;SDS011;5229;41.820;23.490;2023-04-24T07:07:20;5.97;;;5.40;;
10365;SDS011;5229;41.820;23.490;2023-04-24T07:09:48;5.83;;;5.30;;
10365;SDS011;5229;41.820;23.490;2023-04-24T07:12:15;7.27;;;6.33;;
10365;SDS011;5229;41.820;23.490;2023-04-24T07:14:45;8.47;;;7.57;;
10365;SDS011;5229;41.820;23.490;2023-04-24T07:17:12;8.47;;;6.93;;
10365;SDS011;5229;41.820;23.490;2023-04-24T07:19:39;7.97;;;7.27;;
10365;SDS011;5229;41.820;23.490;2023-04-24T07:22:06;7.77;;;6.77;;
10365;SDS011;5229;41.820;23.490;2023-04-24T07:24:35;8.50;;;6.77;;
10365;SDS011;5229;41.820;23.490;2023-04-24T07:27:01;8.10;;;6.87;;
10365;SDS011;5229;41.820;23.490;2023-04-24T07:29:28;6.77;;;6.17;;
10365;SDS011;5229;41.820;23.490;2023-04-24T07:31:55;6.70;;;6.00;;
10365;SDS011;5229;41.820;23.490;2023-04-24T07:34:22;8.53;;;6.70;;
10365;SDS011;5229;41.820;23.490;2023-04-24T07:36:49;7.10;;;6.40;;
10365;SDS011;5229;41.820;23.490;2023-04-24T07:39:16;6.73;;;6.03;;
10365;SDS011;5229;41.820;23.490;2023-04-24T07:41:45;6.90;;;6.30;;
10365;SDS011;5229;41.820;23.490;2023-04-24T07:44:12;7.63;;;6.28;;
10365;SDS011;5229;41.820;23.490;2023-04-24T07:46:39;7.07;;;6.00;;
10365;SDS011;5229;41.820;23.490;2023-04-24T07:49:06;6.65;;;6.05;;
10365;SDS011;5229;41.820;23.490;2023-04-24T07:51:33;6.45;;;5.32;;
10365;SDS011;5229;41.820;23.490;2023-04-24T07:54:03;5.68;;;5.18;;
10365;SDS011;5229;41.820;23.490;2023-04-24T07:56:30;5.95;;;5.45;;
10365;SDS011;5229;41.820;23.490;2023-04-24T07:58:58;6.30;;;5.70;;
10365;SDS011;5229;41.820;23.490;2023-04-24T08:01:26;6.07;;;5.50;;
10365;SDS011;5229;41.820;23.490;2023-04-24T08:03:53;5.57;;;5.07;;
10365;SDS011;5229;41.820;23.490;2023-04-24T08:06:19;5.18;;;4.68;;
10365;SDS011;5229;41.820;23.490;2023-04-24T08:08:46;5.65;;;4.97;;
10365;SDS011;5229;41.820;23.490;2023-04-24T08:11:13;4.53;;;4.00;;
10365;SDS011;5229;41.820;23.490;2023-04-24T08:13:40;4.10;;;3.80;;
10365;SDS011;5229;41.820;23.490;2023-04-24T08:16:08;4.63;;;4.22;;
10365;SDS011;5229;41.820;23.490;2023-04-24T08:18:35;6.03;;;4.75;;
10365;SDS011;5229;41.820;23.490;2023-04-24T08:21:02;4.38;;;3.97;;
10365;SDS011;5229;41.820;23.490;2023-04-24T08:23:29;5.22;;;3.53;;
10365;SDS011;5229;41.820;23.490;2023-04-24T08:25:56;4.15;;;3.85;;
10365;SDS011;5229;41.820;23.490;2023-04-24T08:28:22;4.57;;;4.18;;
10365;SDS011;5229;41.820;23.490;2023-04-24T08:30:49;6.63;;;5.82;;
10365;SDS011;5229;41.820;23.490;2023-04-24T08:33:21;5.97;;;5.38;;
10365;SDS011;5229;41.820;23.490;2023-04-24T08:35:48;3.70;;;3.40;;
10365;SDS011;5229;41.820;23.490;2023-04-24T08:38:15;5.75;;;3.63;;
10365;SDS011;5229;41.820;23.490;2023-04-24T08:40:41;3.65;;;3.35;;
10365;SDS011;5229;41.820;23.490;2023-04-24T08:43:11;4.07;;;3.65;;
10365;SDS011;5229;41.820;23.490;2023-04-24T08:45:38;3.50;;;3.20;;
10365;SDS011;5229;41.820;23.490;2023-04-24T08:48:05;3.22;;;3.03;;
10365;SDS011;5229;41.820;23.490;2023-04-24T08:50:34;4.00;;;2.70;;
10365;SDS011;5229;41.820;23.490;2023-04-24T08:53:03;3.33;;;3.03;;
10365;SDS011;5229;41.820;23.490;2023-04-24T08:55:31;2.95;;;2.65;;
10365;SDS011;5229;41.820;23.490;2023-04-24T08:57:59;3.03;;;2.83;;
10365;SDS011;5229;41.820;23.490;2023-04-24T09:00:28;2.92;;;2.63;;
10365;SDS011;5229;41.820;23.490;2023-04-24T09:02:56;3.03;;;2.55;;
10365;SDS011;5229;41.820;23.490;2023-04-24T09:05:23;2.95;;;2.47;;
10365;SDS011;5229;41.820;23.490;2023-04-24T09:07:53;2.88;;;2.60;;
10365;SDS011;5229;41.820;23.490;2023-04-24T09:10:21;2.42;;;2.20;;
10365;SDS011;5229;41.820;23.490;2023-04-24T09:12:50;2.67;;;2.47;;
10365;SDS011;5229;41.820;23.490;2023-04-24T09:15:18;2.60;;;2.40;;
10365;SDS011;5229;41.820;23.490;2023-04-24T09:17:45;2.83;;;2.35;;
10365;SDS011;5229;41.820;23.490;2023-04-24T09:20:12;1.98;;;1.88;;
10365;SDS011;5229;41.820;23.490;2023-04-24T09:22:39;2.30;;;2.10;;
10365;SDS011;5229;41.820;23.490;2023-04-24T09:25:08;2.17;;;1.80;;
10365;SDS011;5229;41.820;23.490;2023-04-24T09:27:38;5.47;;;2.13;;
10365;SDS011;5229;41.820;23.490;2023-04-24T09:30:08;2.10;;;1.90;;
10365;SDS011;5229;41.820;23.490;2023-04-24T09:32:35;3.25;;;2.10;;
10365;SDS011;5229;41.820;23.490;2023-04-24T09:35:06;2.20;;;1.90;;
10365;SDS011;5229;41.820;23.490;2023-04-24T09:37:35;3.38;;;1.95;;
10365;SDS011;5229;41.820;23.490;2023-04-24T09:40:14;2.72;;;2.03;;
10365;SDS011;5229;41.820;23.490;2023-04-24T09:42:45;4.13;;;2.17;;
10365;SDS011;5229;41.820;23.490;2023-04-24T09:45:17;2.38;;;2.20;;
10365;SDS011;5229;41.820;23.490;2023-04-24T09:47:44;1.88;;;1.75;;
10365;SDS011;5229;41.820;23.490;2023-04-24T09:50:14;1.92;;;1.83;;
10365;SDS011;5229;41.820;23.490;2023-04-24T09:52:43;2.05;;;1.95;;
10365;SDS011;5229;41.820;23.490;2023-04-24T09:55:11;2.08;;;1.85;;
10365;SDS011;5229;41.820;23.490;2023-04-24T09:57:48;2.00;;;1.90;;
10365;SDS011;5229;41.820;23.490;2023-04-24T10:00:22;2.22;;;2.08;;
10365;SDS011;5229;41.820;23.490;2023-04-24T10:02:50;2.65;;;1.98;;
10365;SDS011;5229;41.820;23.490;2023-04-24T10:05:22;2.13;;;2.03;;
10365;SDS011;5229;41.820;23.490;2023-04-24T10:07:50;2.00;;;1.90;;
10365;SDS011;5229;41.820;23.490;2023-04-24T10:10:18;2.17;;;2.08;;
10365;SDS011;5229;41.820;23.490;2023-04-24T10:12:45;2.88;;;2.33;;
10365;SDS011;5229;41.820;23.490;2023-04-24T10:15:13;2.88;;;2.33;;
10365;SDS011;5229;41.820;23.490;2023-04-24T10:17:40;2.17;;;1.95;;
10365;SDS011;5229;41.820;23.490;2023-04-24T10:20:07;6.65;;;2.47;;
10365;SDS011;5229;41.820;23.490;2023-04-24T10:22:35;1.90;;;1.80;;
10365;SDS011;5229;41.820;23.490;2023-04-24T10:25:03;3.88;;;2.22;;
10365;SDS011;5229;41.820;23.490;2023-04-24T10:27:33;2.20;;;2.00;;
10365;SDS011;5229;41.820;23.490;2023-04-24T10:30:02;2.88;;;2.15;;
10365;SDS011;5229;41.820;23.490;2023-04-24T10:32:29;3.67;;;2.20;;
10365;SDS011;5229;41.820;23.490;2023-04-24T10:34:56;2.55;;;2.35;;
10365;SDS011;5229;41.820;23.490;2023-04-24T10:37:23;2.10;;;2.00;;
10365;SDS011;5229;41.820;23.490;2023-04-24T10:39:52;2.40;;;1.98;;
10365;SDS011;5229;41.820;23.490;2023-04-24T10:42:19;2.20;;;2.10;;
10365;SDS011;5229;41.820;23.490;2023-04-24T10:44:48;3.30;;;2.10;;
10365;SDS011;5229;41.820;23.490;2023-04-24T10:47:15;2.78;;;2.20;;
10365;SDS011;5229;41.820;23.490;2023-04-24T10:49:42;2.80;;;2.50;;
10365;SDS011;5229;41.820;23.490;2023-04-24T10:52:09;2.42;;;2.22;;
10365;SDS011;5229;41.820;23.490;2023-04-24T10:54:41;2.22;;;2.03;;
10365;SDS011;5229;41.820;23.490;2023-04-24T10:57:27;2.40;;;2.20;;
10365;SDS011;5229;41.820;23.490;2023-04-24T11:00:16;2.22;;;2.05;;
10365;SDS011;5229;41.820;23.490;2023-04-24T11:02:46;3.55;;;2.28;;
10365;SDS011;5229;41.820;23.490;2023-04-24T11:05:18;4.90;;;2.67;;
10365;SDS011;5229;41.820;23.490;2023-04-24T11:10:43;5.28;;;2.50;;
10365;SDS011;5229;41.820;23.490;2023-04-24T11:13:13;3.00;;;2.70;;
10365;SDS011;5229;41.820;23.490;2023-04-24T11:15:42;2.63;;;2.42;;
10365;SDS011;5229;41.820;23.490;2023-04-24T11:18:12;3.17;;;2.70;;
10365;SDS011;5229;41.820;23.490;2023-04-24T11:20:41;3.70;;;2.72;;
10365;SDS011;5229;41.820;23.490;2023-04-24T11:23:09;3.08;;;2.72;;
10365;SDS011;5229;41.820;23.490;2023-04-24T11:25:39;2.80;;;2.60;;
10365;SDS011;5229;41.820;23.490;2023-04-24T11:28:06;2.33;;;2.13;;
10365;SDS011;5229;41.820;23.490;2023-04-24T11:30:32;2.40;;;2.20;;
10365;SDS011;5229;41.820;23.490;2023-04-24T11:33:04;2.60;;;2.40;;
10365;SDS011;5229;41.820;23.490;2023-04-24T11:35:35;3.13;;;2.65;;
10365;SDS011;5229;41.820;23.490;2023-04-24T11:38:05;4.63;;;2.53;;
10365;SDS011;5229;41.820;23.490;2023-04-24T11:40:33;2.35;;;1.80;;
10365;SDS011;5229;41.820;23.490;2023-04-24T11:43:00;1.77;;;1.65;;
10365;SDS011;5229;41.820;23.490;2023-04-24T11:45:28;2.13;;;1.90;;
10365;SDS011;5229;41.820;23.490;2023-04-24T11:47:55;1.65;;;1.52;;
10365;SDS011;5229;41.820;23.490;2023-04-24T11:50:25;1.92;;;1.65;;
10365;SDS011;5229;41.820;23.490;2023-04-24T11:52:54;6.10;;;2.20;;
10365;SDS011;5229;41.820;23.490;2023-04-24T11:55:26;3.30;;;2.25;;
10365;SDS011;5229;41.820;23.490;2023-04-24T11:57:54;2.70;;;2.50;;
10365;SDS011;5229;41.820;23.490;2023-04-24T12:00:26;2.50;;;2.28;;
10365;SDS011;5229;41.820;23.490;2023-04-24T12:03:03;2.42;;;2.22;;
10365;SDS011;5229;41.820;23.490;2023-04-24T12:05:33;2.78;;;2.30;;
10365;SDS011;5229;41.820;23.490;2023-04-24T12:08:00;2.47;;;2.15;;
10365;SDS011;5229;41.820;23.490;2023-04-24T12:10:28;2.38;;;2.20;;
10365;SDS011;5229;41.820;23.490;2023-04-24T12:12:57;2.60;;;2.40;;
10365;SDS011;5229;41.820;23.490;2023-04-24T12:15:25;2.47;;;2.28;;
10365;SDS011;5229;41.820;23.490;2023-04-24T12:17:52;2.65;;;2.45;;
10365;SDS011;5229;41.820;23.490;2023-04-24T12:20:23;4.00;;;2.83;;
10365;SDS011;5229;41.820;23.490;2023-04-24T12:22:53;3.55;;;2.53;;
10365;SDS011;5229;41.820;23.490;2023-04-24T12:25:21;3.08;;;2.80;;
10365;SDS011;5229;41.820;23.490;2023-04-24T12:27:52;2.88;;;2.58;;
10365;SDS011;5229;41.820;23.490;2023-04-24T12:30:20;3.55;;;2.33;;
10365;SDS011;5229;41.820;23.490;2023-04-24T12:32:52;2.30;;;2.10;;
10365;SDS011;5229;41.820;23.490;2023-04-24T12:35:20;2.33;;;2.13;;
10365;SDS011;5229;41.820;23.490;2023-04-24T12:37:48;3.45;;;2.22;;
10365;SDS011;5229;41.820;23.490;2023-04-24T12:40:17;2.38;;;2.17;;
10365;SDS011;5229;41.820;23.490;2023-04-24T12:42:45;2.38;;;2.15;;
10365;SDS011;5229;41.820;23.490;2023-04-24T12:45:13;2.28;;;2.10;;
10365;SDS011;5229;41.820;23.490;2023-04-24T12:47:42;2.13;;;1.92;;
10365;SDS011;5229;41.820;23.490;2023-04-24T12:50:10;1.95;;;1.70;;
10365;SDS011;5229;41.820;23.490;2023-04-24T12:52:38;2.40;;;2.20;;
10365;SDS011;5229;41.820;23.490;2023-04-24T12:55:05;3.08;;;2.35;;
10365;SDS011;5229;41.820;23.490;2023-04-24T12:57:35;2.63;;;2.38;;
10365;SDS011;5229;41.820;23.490;2023-04-24T13:00:04;2.17;;;2.00;;
10365;SDS011;5229;41.820;23.490;2023-04-24T13:02:32;2.28;;;2.08;;
10365;SDS011;5229;41.820;23.490;2023-04-24T13:04:59;2.17;;;1.98;;
10365;SDS011;5229;41.820;23.490;2023-04-24T13:07:27;5.97;;;2.10;;
10365;SDS011;5229;41.820;23.490;2023-04-24T13:09:55;3.40;;;2.42;;
10365;SDS011;5229;41.820;23.490;2023-04-24T13:12:22;2.42;;;2.00;;
10365;SDS011;5229;41.820;23.490;2023-04-24T13:14:52;2.13;;;1.70;;
10365;SDS011;5229;41.820;23.490;2023-04-24T13:17:19;2.33;;;2.13;;
10365;SDS011;5229;41.820;23.490;2023-04-24T13:19:45;1.75;;;1.60;;
10365;SDS011;5229;41.820;23.490;2023-04-24T13:22:12;4.43;;;1.90;;
10365;SDS011;5229;41.820;23.490;2023-04-24T13:24:39;2.03;;;1.90;;
10365;SDS011;5229;41.820;23.490;2023-04-24T13:27:07;2.25;;;1.80;;
10365;SDS011;5229;41.820;23.490;2023-04-24T13:29:34;1.85;;;1.75;;
10365;SDS011;5229;41.820;23.490;2023-04-24T13:32:02;2.03;;;1.92;;
10365;SDS011;5229;41.820;23.490;2023-04-24T13:34:30;4.50;;;1.88;;
10365;SDS011;5229;41.820;23.490;2023-04-24T13:36:57;1.77;;;1.67;;
10365;SDS011;5229;41.820;23.490;2023-04-24T13:39:25;1.83;;;1.70;;
10365;SDS011;5229;41.820;23.490;2023-04-24T13:41:52;2.60;;;1.63;;
10365;SDS011;5229;41.820;23.490;2023-04-24T13:44:20;1.67;;;1.58;;
10365;SDS011;5229;41.820;23.490;2023-04-24T13:46:48;2.10;;;1.88;;
10365;SDS011;5229;41.820;23.490;2023-04-24T13:49:18;1.80;;;1.70;;
10365;SDS011;5229;41.820;23.490;2023-04-24T13:51:45;2.63;;;1.60;;
10365;SDS011;5229;41.820;23.490;2023-04-24T13:54:12;2.10;;;1.90;;
10365;SDS011;5229;41.820;23.490;2023-04-24T13:56:39;1.90;;;1.80;;
10365;SDS011;5229;41.820;23.490;2023-04-24T13:59:07;2.00;;;1.80;;
10365;SDS011;5229;41.820;23.490;2023-04-24T14:01:34;2.40;;;1.90;;
10365;SDS011;5229;41.820;23.490;2023-04-24T14:04:01;1.90;;;1.73;;
10365;SDS011;5229;41.820;23.490;2023-04-24T14:06:29;2.00;;;1.90;;
10365;SDS011;5229;41.820;23.490;2023-04-24T14:08:56;1.67;;;1.57;;
10365;SDS011;5229;41.820;23.490;2023-04-24T14:11:23;2.70;;;2.00;;
10365;SDS011;5229;41.820;23.490;2023-04-24T14:13:50;1.90;;;1.70;;
10365;SDS011;5229;41.820;23.490;2023-04-24T14:16:17;2.40;;;2.20;;
10365;SDS011;5229;41.820;23.490;2023-04-24T14:18:43;2.30;;;2.07;;
10365;SDS011;5229;41.820;23.490;2023-04-24T14:21:10;2.20;;;2.00;;
10365;SDS011;5229;41.820;23.490;2023-04-24T14:23:38;1.83;;;1.73;;
10365;SDS011;5229;41.820;23.490;2023-04-24T14:26:05;2.70;;;1.87;;
10365;SDS011;5229;41.820;23.490;2023-04-24T14:28:32;2.13;;;2.00;;
10365;SDS011;5229;41.820;23.490;2023-04-24T14:30:59;2.57;;;2.07;;
10365;SDS011;5229;41.820;23.490;2023-04-24T14:33:26;2.23;;;2.03;;
10365;SDS011;5229;41.820;23.490;2023-04-24T14:35:52;1.90;;;1.80;;
10365;SDS011;5229;41.820;23.490;2023-04-24T14:38:19;2.37;;;2.00;;
10365;SDS011;5229;41.820;23.490;2023-04-24T14:40:48;5.50;;;2.40;;
10365;SDS011;5229;41.820;23.490;2023-04-24T14:43:15;2.50;;;2.23;;
10365;SDS011;5229;41.820;23.490;2023-04-24T14:45:41;2.40;;;2.20;;
10365;SDS011;5229;41.820;23.490;2023-04-24T14:48:08;2.33;;;2.07;;
10365;SDS011;5229;41.820;23.490;2023-04-24T14:50:36;2.00;;;1.80;;
10365;SDS011;5229;41.820;23.490;2023-04-24T14:53:03;2.67;;;2.20;;